Time;durP1;ratioP1;P1;durP2;ratioP2;P2;SDS_P1;SDS_P2;PMS_P1;PMS_P2;Temp;Humidity;BMP_temperature;BMP_pressure;BME280_temperature;BME280_humidity;BME280_pressure;Samples;Min_cycle;Max_cycle;Signal;HPM_P1;HPM_P2
2023/07/17 00:01:03;;;;;;;;;6.00;4.00;;;;;24.15;53.80;99432.22;4971536;28;45538;-68
2023/07/17 00:03:29;;;;;;;;;5.75;5.75;;;;;24.17;53.05;99429.41;4971255;28;45451;-68
2023/07/17 00:05:57;;;;;;;;;7.00;5.25;;;;;24.17;53.41;99440.19;4971752;28;45440;-68
2023/07/17 00:08:22;;;;;;;;;5.60;4.00;;;;;24.18;53.37;99431.09;4970398;28;45603;-68
2023/07/17 00:10:48;;;;;;;;;5.25;5.00;;;;;24.16;53.69;99436.63;4971333;28;47319;-68
2023/07/17 00:13:13;;;;;;;;;5.00;5.00;;;;;24.16;53.00;99435.78;4969174;28;45507;-68
2023/07/17 00:15:39;;;;;;;;;1.00;1.00;;;;;24.14;53.21;99437.75;4971917;28;46027;-68
2023/07/17 00:18:04;;;;;;;;;3.00;2.25;;;;;24.11;53.24;99446.16;4970391;28;46197;-68
2023/07/17 00:20:30;;;;;;;;;5.50;5.50;;;;;24.06;53.14;99435.78;4973770;28;46631;-68
2023/07/17 00:22:55;;;;;;;;;6.25;5.50;;;;;24.02;52.81;99431.66;4975183;28;45419;-68
2023/07/17 00:25:20;;;;;;;;;4.25;4.25;;;;;23.98;53.22;99441.84;4973871;28;45473;-68
2023/07/17 00:27:46;;;;;;;;;5.75;4.25;;;;;23.95;53.52;99444.00;4974811;28;45607;-68
2023/07/17 00:30:12;;;;;;;;;5.00;5.00;;;;;23.93;53.72;99443.28;4974673;28;45925;-68
2023/07/17 00:32:38;;;;;;;;;5.00;4.00;;;;;23.90;53.95;99430.06;4974651;28;45781;-68
2023/07/17 00:35:04;;;;;;;;;6.00;4.75;;;;;23.87;53.56;99430.34;4973390;28;45526;-68
2023/07/17 00:37:29;;;;;;;;;6.00;6.00;;;;;23.82;53.78;99428.06;4973660;28;45470;-68
2023/07/17 00:39:54;;;;;;;;;5.75;5.00;;;;;23.78;53.92;99440.13;4974890;28;45851;-68
2023/07/17 00:42:20;;;;;;;;;5.00;5.00;;;;;23.74;53.61;99436.00;4974259;28;45491;-68
2023/07/17 00:44:45;;;;;;;;;5.00;5.00;;;;;23.73;53.95;99436.13;4973445;28;45526;-68
2023/07/17 00:47:12;;;;;;;;;3.75;3.75;;;;;23.70;54.02;99434.53;4974448;28;45540;-67
2023/07/17 00:49:38;;;;;;;;;5.20;5.20;;;;;23.68;54.18;99436.53;4974746;28;46592;-69
2023/07/17 00:52:05;;;;;;;;;7.25;5.50;;;;;23.65;54.21;99434.09;4974371;28;45476;-68
2023/07/17 00:54:31;;;;;;;;;5.60;4.80;;;;;23.63;54.48;99439.63;4974681;28;45452;-69
2023/07/17 00:56:59;;;;;;;;;6.40;5.20;;;;;23.62;54.61;99434.41;4974369;28;45438;-68
2023/07/17 00:59:24;;;;;;;;;4.80;4.80;;;;;23.59;54.31;99432.81;4974477;28;46241;-69
2023/07/17 01:01:50;;;;;;;;;4.00;4.00;;;;;23.56;54.39;99432.25;4974513;28;45584;-69
2023/07/17 01:04:15;;;;;;;;;6.00;5.25;;;;;23.54;54.50;99437.75;4974722;28;45970;-66
2023/07/17 01:06:40;;;;;;;;;5.25;4.75;;;;;23.51;54.69;99431.75;4974326;28;45578;-67
2023/07/17 01:09:08;;;;;;;;;5.00;5.00;;;;;23.51;54.90;99435.34;4974128;28;45675;-67
2023/07/17 01:11:34;;;;;;;;;5.20;5.20;;;;;23.51;54.83;99434.44;4974084;28;45547;-68
2023/07/17 01:13:59;;;;;;;;;7.00;5.60;;;;;23.50;55.13;99433.59;4974354;28;45551;-67
2023/07/17 01:16:25;;;;;;;;;4.50;3.75;;;;;23.47;55.01;99428.47;4974327;28;45450;-67
2023/07/17 01:18:50;;;;;;;;;4.75;4.75;;;;;23.51;55.03;99432.63;4973860;28;47274;-67
2023/07/17 01:21:19;;;;;;;;;7.00;5.00;;;;;23.53;55.24;99430.66;4973742;28;45519;-68
2023/07/17 01:23:45;;;;;;;;;5.40;5.00;;;;;23.53;55.36;99430.66;4974596;28;45555;-68
2023/07/17 01:26:15;;;;;;;;;5.50;5.50;;;;;23.50;55.23;99427.34;4973086;28;45433;-67
2023/07/17 01:28:41;;;;;;;;;4.20;4.20;;;;;23.52;55.67;99431.66;4973882;28;45518;-67
2023/07/17 01:31:07;;;;;;;;;6.40;6.00;;;;;23.49;55.82;99420.25;4973207;28;45506;-67
2023/07/17 01:33:33;;;;;;;;;6.75;4.50;;;;;23.46;55.19;99417.88;4973323;28;45573;-67
2023/07/17 01:36:00;;;;;;;;;5.80;5.40;;;;;23.40;55.81;99424.63;4973396;28;45513;-67
2023/07/17 01:38:26;;;;;;;;;4.40;4.40;;;;;23.34;55.62;99414.41;4973164;28;45968;-67
2023/07/17 01:40:52;;;;;;;;;5.25;5.25;;;;;23.30;55.88;99427.28;4972441;28;45457;-67
2023/07/17 01:43:17;;;;;;;;;4.00;4.00;;;;;23.26;55.71;99428.53;4970991;28;45497;-68
2023/07/17 01:45:43;;;;;;;;;5.25;4.25;;;;;23.25;55.39;99424.16;4968226;28;45517;-68
2023/07/17 01:48:09;;;;;;;;;8.00;7.25;;;;;23.25;56.41;99431.38;4964145;28;45550;-68
2023/07/17 01:50:35;;;;;;;;;5.00;5.00;;;;;23.23;56.13;99431.50;4973331;28;45535;-68
2023/07/17 01:53:00;;;;;;;;;6.25;5.25;;;;;23.23;55.75;99433.34;4973742;28;45595;-68
2023/07/17 01:55:25;;;;;;;;;7.00;6.00;;;;;23.22;56.19;99439.69;4973399;28;45510;-68
2023/07/17 01:57:51;;;;;;;;;5.50;5.00;;;;;23.18;56.65;99431.03;4973297;28;45446;-68
2023/07/17 02:00:17;;;;;;;;;4.50;4.50;;;;;23.15;56.40;99427.75;4972146;28;45464;-68
2023/07/17 02:02:43;;;;;;;;;6.40;5.40;;;;;23.11;56.45;99424.50;4974038;28;45507;-68
2023/07/17 02:05:09;;;;;;;;;4.50;4.50;;;;;23.08;56.45;99427.47;4972516;28;45470;-68
2023/07/17 02:07:34;;;;;;;;;7.00;5.00;;;;;23.06;56.63;99425.88;4973730;28;45962;-68
2023/07/17 02:10:00;;;;;;;;;8.00;4.75;;;;;23.03;57.36;99428.84;4973145;28;45490;-67
2023/07/17 02:12:25;;;;;;;;;7.50;5.00;;;;;22.97;57.42;99431.06;4972992;28;45499;-67
2023/07/17 02:14:51;;;;;;;;;6.00;6.00;;;;;22.95;57.19;99430.38;4972753;28;45544;-68
2023/07/17 02:17:17;;;;;;;;;4.60;4.60;;;;;22.94;57.61;99433.19;4972475;28;47078;-68
2023/07/17 02:19:42;;;;;;;;;7.00;6.00;;;;;22.95;57.57;99433.06;4973075;28;45613;-68
2023/07/17 02:22:07;;;;;;;;;6.50;5.75;;;;;22.93;57.71;99436.84;4972456;28;45497;-68
2023/07/17 02:24:33;;;;;;;;;4.25;4.25;;;;;22.92;57.58;99438.69;4972147;28;45469;-68
2023/07/17 02:26:58;;;;;;;;;6.25;5.50;;;;;22.89;57.95;99432.72;4970458;28;46377;-68
2023/07/17 02:29:24;;;;;;;;;5.25;5.25;;;;;22.86;58.13;99433.81;4971273;28;45862;-68
2023/07/17 02:31:50;;;;;;;;;6.00;6.00;;;;;22.80;58.78;99434.34;4973302;28;45383;-68
2023/07/17 02:34:15;;;;;;;;;4.25;4.25;;;;;22.76;58.39;99440.94;4973144;28;45614;-68
2023/07/17 02:36:42;;;;;;;;;5.75;5.25;;;;;22.74;59.02;99434.00;4973070;28;46500;-68
2023/07/17 02:39:08;;;;;;;;;3.60;3.20;;;;;22.69;59.22;99441.59;4972905;28;45553;-68
2023/07/17 02:41:33;;;;;;;;;5.25;5.25;;;;;22.66;59.00;99433.78;4972593;28;45529;-68
2023/07/17 02:43:58;;;;;;;;;9.25;7.00;;;;;22.66;59.34;99434.63;4972803;28;45444;-68
2023/07/17 02:46:24;;;;;;;;;5.00;5.00;;;;;22.64;59.19;99432.06;4972934;28;46542;-68
2023/07/17 02:48:49;;;;;;;;;5.00;5.00;;;;;22.67;59.66;99436.34;4972272;28;45487;-68
2023/07/17 02:51:15;;;;;;;;;5.75;5.00;;;;;22.67;59.45;99432.81;4972676;28;46020;-68
2023/07/17 02:53:41;;;;;;;;;6.00;5.75;;;;;22.65;59.54;99446.38;4972309;28;45509;-68
2023/07/17 02:56:08;;;;;;;;;7.00;6.00;;;;;22.63;59.16;99441.13;4971568;28;46737;-68
2023/07/17 02:58:34;;;;;;;;;5.80;5.80;;;;;22.60;59.75;99444.09;4972874;28;45473;-67
2023/07/17 03:01:00;;;;;;;;;6.00;5.20;;;;;22.57;59.57;99447.03;4972853;28;45545;-68
2023/07/17 03:03:25;;;;;;;;;5.00;5.00;;;;;22.53;59.71;99445.56;4972458;28;45462;-68
2023/07/17 03:05:50;;;;;;;;;6.50;4.00;;;;;22.51;60.46;99455.59;4972388;28;46305;-68
2023/07/17 03:08:16;;;;;;;;;7.75;5.00;;;;;22.50;60.26;99450.34;4972139;28;45594;-68
2023/07/17 03:10:41;;;;;;;;;6.00;6.00;;;;;22.49;60.34;99446.81;4972596;28;45550;-68
2023/07/17 03:13:07;;;;;;;;;5.75;5.75;;;;;22.50;59.91;99458.41;4972022;28;45451;-68
2023/07/17 03:15:32;;;;;;;;;6.00;6.00;;;;;22.48;60.55;99455.84;4972365;28;45542;-68
2023/07/17 03:17:57;;;;;;;;;6.00;4.25;;;;;22.46;60.57;99457.81;4972463;28;45492;-68
2023/07/17 03:20:23;;;;;;;;;5.75;5.75;;;;;22.44;60.53;99457.13;4972217;28;45605;-68
2023/07/17 03:22:48;;;;;;;;;7.25;6.25;;;;;22.45;60.45;99455.28;4972437;28;45494;-68
2023/07/17 03:25:14;;;;;;;;;6.00;6.00;;;;;22.47;60.56;99456.81;4972209;28;46927;-68
2023/07/17 03:27:39;;;;;;;;;5.00;4.75;;;;;22.48;61.00;99450.47;4972198;28;45444;-69
2023/07/17 03:30:05;;;;;;;;;4.25;4.25;;;;;22.49;60.99;99449.50;4972970;28;45567;-69
2023/07/17 03:32:34;;;;;;;;;6.00;5.20;;;;;22.51;61.13;99450.22;4972554;28;45617;-68
2023/07/17 03:35:00;;;;;;;;;8.40;7.40;;;;;22.54;60.97;99460.72;4971960;28;46250;-68
2023/07/17 03:37:25;;;;;;;;;6.75;5.00;;;;;22.54;60.39;99449.97;4972015;28;45481;-67
2023/07/17 03:39:51;;;;;;;;;5.00;5.00;;;;;22.56;60.69;99452.53;4972071;28;45486;-67
2023/07/17 03:42:16;;;;;;;;;7.75;6.75;;;;;22.57;60.81;99460.47;4971781;28;45688;-68
2023/07/17 03:44:42;;;;;;;;;5.50;5.00;;;;;22.58;60.54;99454.13;4971936;28;45543;-68
2023/07/17 03:47:07;;;;;;;;;7.25;6.00;;;;;22.57;60.82;99462.31;4971897;28;45443;-68
2023/07/17 03:49:33;;;;;;;;;4.75;4.75;;;;;22.57;60.87;99462.31;4972334;28;45466;-68
2023/07/17 03:51:58;;;;;;;;;6.75;5.50;;;;;22.56;60.98;99464.13;4972367;28;45487;-68
2023/07/17 03:54:24;;;;;;;;;6.00;6.00;;;;;22.55;61.23;99464.25;4971718;28;46529;-68
2023/07/17 03:56:50;;;;;;;;;8.20;6.60;;;;;22.54;60.93;99458.03;4972118;28;45542;-67
2023/07/17 03:59:15;;;;;;;;;7.25;7.25;;;;;22.52;61.24;99464.50;4972276;28;45932;-68
2023/07/17 04:01:41;;;;;;;;;5.50;5.50;;;;;22.51;61.55;99466.34;4972153;28;45496;-68
2023/07/17 04:04:06;;;;;;;;;7.50;7.00;;;;;22.51;61.41;99463.66;4972395;28;46427;-68
2023/07/17 04:06:32;;;;;;;;;7.50;7.50;;;;;22.53;60.72;99468.91;4972433;28;45478;-68
2023/07/17 04:08:57;;;;;;;;;8.00;6.00;;;;;22.54;61.29;99465.25;4972301;28;45482;-68
2023/07/17 04:11:24;;;;;;;;;8.00;6.00;;;;;22.54;61.50;99465.25;4971823;28;45583;-68
2023/07/17 04:13:50;;;;;;;;;2.80;2.00;;;;;22.53;61.20;99461.69;4972099;28;46468;-70
2023/07/17 04:16:18;;;;;;;;;6.00;6.00;;;;;22.57;61.27;99465.00;4971223;28;45472;-68
2023/07/17 04:18:43;;;;;;;;;6.80;6.60;;;;;22.60;61.76;99465.59;4971750;28;45501;-68
2023/07/17 04:21:09;;;;;;;;;6.50;5.25;;;;;22.64;61.25;99464.31;4971889;28;45550;-68
2023/07/17 04:23:34;;;;;;;;;6.50;6.50;;;;;22.68;61.26;99464.06;4971975;28;47058;-67
2023/07/17 04:25:59;;;;;;;;;10.50;9.50;;;;;22.69;61.28;99463.09;4971763;28;45398;-70
2023/07/17 04:28:25;;;;;;;;;7.75;6.50;;;;;22.71;60.83;99467.38;4972155;28;45919;-67
2023/07/17 04:30:50;;;;;;;;;7.25;7.25;;;;;22.76;61.31;99475.03;4971244;28;45506;-68
2023/07/17 04:33:16;;;;;;;;;8.00;8.00;;;;;22.79;60.50;99470.28;4971740;28;45588;-68
2023/07/17 04:35:41;;;;;;;;;7.00;6.50;;;;;22.81;60.99;99471.00;4971497;28;45496;-68
2023/07/17 04:38:06;;;;;;;;;7.50;7.25;;;;;22.83;60.75;99473.56;4971253;28;45414;-68
2023/07/17 04:40:32;;;;;;;;;9.00;9.00;;;;;22.84;60.82;99473.44;4971342;28;45434;-68
2023/07/17 04:43:00;;;;;;;;;8.00;7.50;;;;;22.87;60.46;99475.00;4967423;28;45724;-68
2023/07/17 04:45:26;;;;;;;;;5.20;5.20;;;;;22.83;60.76;99479.78;4969334;28;45435;-67
2023/07/17 04:47:52;;;;;;;;;7.40;5.20;;;;;22.77;60.99;99474.09;4971490;28;45551;-67
2023/07/17 04:50:17;;;;;;;;;9.00;7.75;;;;;22.70;61.43;99476.41;4971530;28;45486;-67
2023/07/17 04:52:43;;;;;;;;;8.50;8.00;;;;;22.64;61.75;99485.84;4969937;28;45641;-68
2023/07/17 04:55:08;;;;;;;;;7.00;7.00;;;;;22.61;61.49;99480.75;4970970;28;45398;-68
2023/07/17 04:57:34;;;;;;;;;6.25;6.25;;;;;22.61;61.68;99480.75;4970477;28;45376;-68
2023/07/17 04:59:59;;;;;;;;;8.25;7.00;;;;;22.60;61.54;99481.72;4971325;28;45461;-68
2023/07/17 05:02:24;;;;;;;;;5.00;5.00;;;;;22.60;61.29;99479.03;4964201;28;46264;-68
2023/07/17 05:04:50;;;;;;;;;7.25;5.75;;;;;22.61;61.48;99482.56;4971115;28;45419;-68
2023/07/17 05:07:16;;;;;;;;;6.00;5.75;;;;;22.61;61.43;99474.50;4972973;28;46110;-67
2023/07/17 05:09:41;;;;;;;;;9.25;9.00;;;;;22.63;61.45;99486.81;4974440;28;45549;-67
2023/07/17 05:12:07;;;;;;;;;7.50;7.25;;;;;22.65;61.47;99494.75;4973864;28;46296;-67
2023/07/17 05:14:32;;;;;;;;;6.00;6.00;;;;;22.68;61.59;99493.63;4974218;28;45558;-67
2023/07/17 05:16:57;;;;;;;;;9.75;9.00;;;;;22.69;61.38;99498.88;4974785;28;45549;-68
2023/07/17 05:19:23;;;;;;;;;8.25;6.00;;;;;22.71;60.91;99509.50;4973892;28;45634;-68
2023/07/17 05:21:48;;;;;;;;;6.00;6.00;;;;;22.71;61.22;99513.06;4974194;28;45699;-69
2023/07/17 05:24:14;;;;;;;;;8.75;6.75;;;;;22.73;61.60;99513.78;4974130;28;45567;-68
2023/07/17 05:26:39;;;;;;;;;9.00;8.00;;;;;22.79;61.49;99517.84;4973246;28;45473;-67
2023/07/17 05:29:04;;;;;;;;;7.00;7.00;;;;;22.77;61.44;99511.72;4973780;28;45564;-67
2023/07/17 05:31:30;;;;;;;;;6.50;6.50;;;;;22.75;61.20;99510.97;4972124;28;48276;-68
2023/07/17 05:33:56;;;;;;;;;6.50;5.75;;;;;22.73;61.55;99521.00;4973383;28;45427;-67
2023/07/17 05:36:22;;;;;;;;;7.00;7.00;;;;;22.76;62.19;99523.44;4973776;28;45414;-67
2023/07/17 05:38:47;;;;;;;;;6.20;6.20;;;;;22.75;62.10;99527.09;4973237;28;45491;-67
2023/07/17 05:41:13;;;;;;;;;12.75;11.75;;;;;22.77;62.00;99525.19;4973028;28;45777;-68
2023/07/17 05:43:38;;;;;;;;;8.25;7.00;;;;;22.79;62.05;99521.34;4971585;28;45469;-68
2023/07/17 05:46:04;;;;;;;;;6.25;5.25;;;;;22.83;61.38;99527.31;4972371;28;45442;-67
2023/07/17 05:48:29;;;;;;;;;8.50;7.00;;;;;22.88;61.56;99525.13;4973801;28;45525;-67
2023/07/17 05:50:55;;;;;;;;;6.50;6.50;;;;;22.90;61.18;99532.06;4973963;28;46238;-68
2023/07/17 05:53:20;;;;;;;;;8.00;7.25;;;;;22.93;61.50;99536.34;4973577;28;45471;-67
2023/07/17 05:55:46;;;;;;;;;8.50;7.00;;;;;22.94;61.59;99535.38;4973216;28;45782;-67
2023/07/17 05:58:12;;;;;;;;;8.00;6.60;;;;;22.98;61.48;99529.56;4973777;28;45671;-68
2023/07/17 06:00:38;;;;;;;;;8.75;8.75;;;;;23.00;61.38;99537.50;4973449;28;46632;-67
2023/07/17 06:03:03;;;;;;;;;9.00;7.25;;;;;23.01;61.55;99536.53;4973761;28;45477;-67
2023/07/17 06:05:29;;;;;;;;;6.00;6.00;;;;;23.05;61.34;99538.00;4973902;28;45483;-66
2023/07/17 06:07:54;;;;;;;;;7.75;6.75;;;;;23.07;61.30;99533.34;4971739;28;45599;-67
2023/07/17 06:10:20;;;;;;;;;9.50;9.00;;;;;23.15;60.96;99540.72;4973536;28;45545;-66
2023/07/17 06:12:45;;;;;;;;;7.00;6.00;;;;;23.23;61.27;99549.03;4973212;28;45461;-68
2023/07/17 06:15:13;;;;;;;;;9.25;8.00;;;;;23.26;61.18;99533.47;4973925;28;45487;-66
2023/07/17 06:17:39;;;;;;;;;8.60;8.60;;;;;23.32;61.33;99540.16;4972249;28;45354;-69
2023/07/17 06:20:06;;;;;;;;;9.25;8.25;;;;;23.39;61.17;99545.88;4973197;28;45432;-67
2023/07/17 06:22:31;;;;;;;;;7.60;7.00;;;;;23.42;61.20;99542.91;4973054;28;45565;-68
2023/07/17 06:24:57;;;;;;;;;7.50;6.75;;;;;23.44;60.75;99543.63;4973506;28;45603;-68
2023/07/17 06:27:22;;;;;;;;;7.25;6.00;;;;;23.47;60.77;99546.03;4972678;28;45493;-68
2023/07/17 06:29:47;;;;;;;;;7.00;7.00;;;;;23.50;60.44;99545.78;4973341;28;46070;-69
2023/07/17 06:32:13;;;;;;;;;8.00;7.00;;;;;23.50;60.18;99543.94;4970641;28;45721;-68
2023/07/17 06:34:41;;;;;;;;;10.25;7.00;;;;;23.53;60.50;99543.72;4972446;28;45610;-68
2023/07/17 06:37:07;;;;;;;;;8.00;8.00;;;;;23.55;60.53;99546.28;4967764;28;45576;-68
2023/07/17 06:39:33;;;;;;;;;10.00;9.00;;;;;23.55;60.38;99543.59;4971445;28;45662;-67
2023/07/17 06:41:58;;;;;;;;;8.25;8.25;;;;;23.55;60.30;99548.97;4972257;28;45485;-67
2023/07/17 06:44:24;;;;;;;;;8.75;7.75;;;;;23.57;60.04;99547.00;4973175;28;45451;-67
2023/07/17 06:46:49;;;;;;;;;5.00;5.00;;;;;23.61;59.94;99548.44;4973492;28;45552;-67
2023/07/17 06:49:15;;;;;;;;;6.50;6.00;;;;;23.64;60.00;99546.31;4972955;28;45518;-67
2023/07/17 06:51:41;;;;;;;;;6.25;6.25;;;;;23.65;59.97;99545.31;4972866;28;45436;-67
2023/07/17 06:54:06;;;;;;;;;6.75;6.00;;;;;23.66;60.44;99548.88;4973284;28;45602;-67
2023/07/17 06:56:31;;;;;;;;;8.00;7.25;;;;;23.68;60.19;99544.22;4970801;28;45684;-67
2023/07/17 06:58:57;;;;;;;;;8.50;6.75;;;;;23.71;59.96;99551.19;4972291;28;46213;-67
2023/07/17 07:01:22;;;;;;;;;7.50;7.00;;;;;23.73;60.48;99547.38;4960838;28;45532;-67
2023/07/17 07:03:48;;;;;;;;;8.00;8.00;;;;;23.70;60.11;99546.78;4971779;28;45497;-67
2023/07/17 07:06:13;;;;;;;;;9.00;8.25;;;;;23.66;60.13;99546.19;4973050;28;45523;-68
2023/07/17 07:08:42;;;;;;;;;10.50;7.50;;;;;23.68;59.66;99549.59;4970367;28;46964;-67
2023/07/17 07:11:08;;;;;;;;;6.20;6.20;;;;;23.69;59.30;99556.69;4972491;28;45525;-67
2023/07/17 07:13:34;;;;;;;;;7.40;5.60;;;;;23.69;59.32;99550.44;4959834;28;45458;-68
2023/07/17 07:15:59;;;;;;;;;7.50;7.25;;;;;23.66;59.01;99552.41;4967878;28;45548;-68
2023/07/17 07:18:25;;;;;;;;;8.25;7.25;;;;;23.68;59.40;99546.91;4970992;28;46498;-68
2023/07/17 07:20:53;;;;;;;;;7.00;6.00;;;;;23.68;59.62;99549.59;4973034;28;45457;-68
2023/07/17 07:23:19;;;;;;;;;6.00;6.00;;;;;23.67;59.55;99545.19;4972644;28;45580;-68
2023/07/17 07:25:44;;;;;;;;;5.80;5.80;;;;;23.63;59.86;99552.69;4972133;28;45550;-68
2023/07/17 07:28:11;;;;;;;;;9.25;8.25;;;;;23.66;60.10;99555.13;4972164;28;45496;-68
2023/07/17 07:30:37;;;;;;;;;7.20;6.60;;;;;23.65;59.89;99555.25;4971383;28;45437;-68
2023/07/17 07:33:02;;;;;;;;;9.50;8.75;;;;;23.61;60.37;99552.00;4972542;28;45530;-68
2023/07/17 07:35:28;;;;;;;;;7.25;7.25;;;;;23.61;60.23;99554.69;4972827;28;45418;-68
2023/07/17 07:37:54;;;;;;;;;9.25;8.25;;;;;23.62;60.05;99548.31;4971367;28;46453;-68
2023/07/17 07:40:22;;;;;;;;;9.25;7.75;;;;;23.64;60.05;99543.63;4972591;28;45457;-68
2023/07/17 07:42:48;;;;;;;;;8.80;7.60;;;;;23.71;59.65;99546.63;4971477;28;45536;-68
2023/07/17 07:45:16;;;;;;;;;6.00;6.00;;;;;23.74;58.46;99549.06;4971986;28;45422;-68
2023/07/17 07:47:42;;;;;;;;;5.80;5.80;;;;;23.78;58.34;99555.91;4971423;28;46235;-68
2023/07/17 07:50:08;;;;;;;;;6.75;6.75;;;;;23.81;58.15;99546.66;4971987;28;45491;-68
2023/07/17 07:52:33;;;;;;;;;7.75;7.75;;;;;23.90;58.17;99541.34;4972246;28;45518;-67
2023/07/17 07:54:59;;;;;;;;;6.00;5.25;;;;;24.02;58.10;99542.94;4972147;28;45537;-67
2023/07/17 07:57:25;;;;;;;;;4.00;4.00;;;;;24.12;57.94;99540.31;4971568;28;45506;-67
2023/07/17 07:59:50;;;;;;;;;4.50;4.50;;;;;24.26;57.88;99541.78;4971552;28;45507;-67
2023/07/17 08:02:17;;;;;;;;;7.00;6.00;;;;;24.33;57.54;99548.31;4972234;28;45442;-67
2023/07/17 08:04:42;;;;;;;;;9.20;7.40;;;;;24.43;57.66;99542.97;4971752;28;45627;-68
2023/07/17 08:07:08;;;;;;;;;6.00;6.00;;;;;24.54;57.62;99545.53;4972433;28;45566;-68
2023/07/17 08:09:33;;;;;;;;;7.75;6.75;;;;;24.63;56.26;99547.38;4972163;28;45468;-68
2023/07/17 08:11:59;;;;;;;;;7.50;6.00;;;;;24.69;55.54;99554.91;4971762;28;45746;-68
2023/07/17 08:14:24;;;;;;;;;6.50;5.50;;;;;24.70;55.85;99554.75;4971602;28;45538;-68
2023/07/17 08:16:50;;;;;;;;;6.00;6.00;;;;;24.74;55.56;99551.78;4972013;28;46201;-68
2023/07/17 08:19:19;;;;;;;;;6.25;6.00;;;;;24.74;55.20;99554.50;4972028;28;45527;-67
2023/07/17 08:21:45;;;;;;;;;6.20;5.40;;;;;24.75;55.11;99554.34;4971654;28;45476;-68
2023/07/17 08:24:11;;;;;;;;;7.25;5.50;;;;;24.81;55.00;99559.16;4972008;28;45430;-67
2023/07/17 08:26:38;;;;;;;;;6.25;6.25;;;;;24.91;54.41;99556.47;4971215;28;46540;-68
2023/07/17 08:29:06;;;;;;;;;5.00;5.00;;;;;24.95;54.14;99558.78;4972026;28;45422;-68
2023/07/17 08:31:32;;;;;;;;;4.40;4.40;;;;;24.97;53.74;99556.78;4970787;28;45419;-68
2023/07/17 08:33:59;;;;;;;;;6.40;5.60;;;;;25.01;54.22;99555.50;4970832;28;45370;-67
2023/07/17 08:36:24;;;;;;;;;5.80;4.20;;;;;25.04;53.71;99547.13;4970690;28;46423;-67
2023/07/17 08:38:49;;;;;;;;;7.50;5.25;;;;;25.13;54.08;99558.09;4969831;28;45590;-68
2023/07/17 08:41:15;;;;;;;;;6.00;5.00;;;;;25.18;53.63;99556.63;4972984;28;45745;-68
2023/07/17 08:43:41;;;;;;;;;7.00;5.75;;;;;25.25;53.58;99548.81;4975064;28;45453;-68
2023/07/17 08:46:07;;;;;;;;;8.20;5.40;;;;;25.29;53.19;99553.81;4975308;28;45743;-68
2023/07/17 08:48:33;;;;;;;;;8.00;5.40;;;;;25.35;53.58;99555.91;4973447;28;45481;-67
2023/07/17 08:51:00;;;;;;;;;5.25;5.25;;;;;25.39;52.73;99559.16;4975379;28;45363;-68
2023/07/17 08:53:26;;;;;;;;;6.00;5.00;;;;;25.33;53.19;99557.88;4974981;28;45546;-68
2023/07/17 08:55:54;;;;;;;;;7.20;6.40;;;;;25.29;53.62;99551.09;4973960;28;46293;-68
2023/07/17 08:58:21;;;;;;;;;6.60;5.80;;;;;25.30;53.68;99554.66;4974676;28;45453;-68
2023/07/17 09:00:50;;;;;;;;;6.60;6.60;;;;;25.33;53.48;99551.63;4975450;28;45600;-67
2023/07/17 09:03:16;;;;;;;;;8.00;8.00;;;;;25.36;53.82;99554.06;4975158;28;45517;-55
2023/07/17 09:05:43;;;;;;;;;7.50;7.50;;;;;25.34;53.59;99551.50;4974556;28;45526;-57
2023/07/17 09:08:08;;;;;;;;;7.40;6.60;;;;;25.33;53.81;99559.75;4974448;28;45441;-57
2023/07/17 09:10:35;;;;;;;;;8.25;8.25;;;;;25.30;53.75;99554.66;4974843;28;45523;-57
2023/07/17 09:13:01;;;;;;;;;7.25;7.25;;;;;25.27;53.85;99552.25;4974360;28;45625;-57
2023/07/17 09:15:32;;;;;;;;;5.50;5.50;;;;;25.27;53.74;99550.38;4971294;28;47127;-57
2023/07/17 09:17:58;;;;;;;;;9.80;7.00;;;;;25.29;54.39;99552.94;4974820;28;45484;-57
2023/07/17 09:20:25;;;;;;;;;7.60;7.60;;;;;25.31;54.03;99545.53;4974837;28;45671;-58
2023/07/17 09:22:55;;;;;;;;;7.00;6.60;;;;;25.36;54.30;99541.41;4974070;28;45519;-57
2023/07/17 09:25:25;;;;;;;;;6.40;6.00;;;;;25.44;54.14;99547.94;4974785;28;45558;-57
2023/07/17 09:27:51;;;;;;;;;7.00;7.00;;;;;25.53;54.17;99547.91;4974293;28;45454;-58
2023/07/17 09:30:19;;;;;;;;;6.25;6.25;;;;;25.60;53.42;99545.50;4974205;28;46091;-57
2023/07/17 09:32:46;;;;;;;;;7.50;6.25;;;;;25.67;52.90;99547.47;4974003;28;45583;-58
2023/07/17 09:35:12;;;;;;;;;6.20;6.20;;;;;25.70;53.12;99546.34;4974234;28;46509;-57
2023/07/17 09:37:41;;;;;;;;;10.80;7.00;;;;;25.69;53.34;99534.69;4974438;28;45370;-58
2023/07/17 09:40:09;;;;;;;;;6.60;6.60;;;;;25.71;52.77;99542.63;4974294;28;45492;-58
2023/07/17 09:42:35;;;;;;;;;6.60;6.60;;;;;25.76;52.71;99539.50;4973163;28;45933;-57
2023/07/17 09:45:01;;;;;;;;;10.00;8.00;;;;;25.85;53.08;99535.91;4972551;28;45461;-57
2023/07/17 09:47:26;;;;;;;;;5.80;5.80;;;;;25.88;52.80;99536.44;4973640;28;45585;-58
2023/07/17 09:49:54;;;;;;;;;5.50;5.50;;;;;25.91;52.78;99536.16;4972690;28;45478;-57
2023/07/17 09:52:20;;;;;;;;;9.40;8.00;;;;;25.95;52.77;99539.44;4972722;28;45456;-57
2023/07/17 09:54:49;;;;;;;;;6.50;5.50;;;;;25.96;53.07;99541.97;4972719;28;46551;-56
2023/07/17 09:57:22;;;;;;;;;7.40;7.40;;;;;26.04;52.72;99535.81;4973067;28;45473;-57
2023/07/17 09:59:49;;;;;;;;;10.00;8.20;;;;;26.14;52.73;99535.78;4974103;28;45474;-57
2023/07/17 10:02:20;;;;;;;;;6.80;6.80;;;;;26.23;52.34;99532.16;4973615;28;45407;-57
2023/07/17 10:04:52;;;;;;;;;6.80;6.20;;;;;26.28;52.28;99532.56;4973800;28;45473;-57
2023/07/17 10:07:20;;;;;;;;;5.60;5.60;;;;;26.29;51.92;99534.31;4973251;28;45434;-57
2023/07/17 10:09:48;;;;;;;;;8.00;8.00;;;;;26.30;51.88;99531.47;4974054;28;45533;-58
2023/07/17 10:12:15;;;;;;;;;6.00;6.00;;;;;26.30;51.97;99527.91;4972748;28;45530;-58
2023/07/17 10:14:42;;;;;;;;;8.40;7.80;;;;;26.32;52.31;99517.75;4973564;28;45458;-56
2023/07/17 10:17:31;;;;;;;;;7.00;5.60;;;;;26.33;52.22;99516.75;4973555;28;45454;-57
2023/07/17 10:19:58;;;;;;;;;7.00;7.00;;;;;26.37;52.38;99520.88;4973402;28;45466;-57
2023/07/17 10:22:38;;;;;;;;;8.20;6.60;;;;;26.43;51.94;99517.56;4973046;28;45694;-56
2023/07/17 10:25:18;;;;;;;;;6.60;6.60;;;;;26.54;52.24;99508.38;4973809;28;46578;-56
2023/07/17 10:27:54;;;;;;;;;8.00;8.00;;;;;26.64;52.02;99503.75;4973459;28;45884;-56
2023/07/17 10:30:35;;;;;;;;;7.40;7.40;;;;;26.74;51.84;99508.06;4973401;28;45475;-57
2023/07/17 10:33:16;;;;;;;;;7.25;7.25;;;;;26.83;51.93;99502.72;4973596;28;45397;-58
2023/07/17 10:35:50;;;;;;;;;6.60;6.60;;;;;26.88;51.70;99497.69;4973122;28;45544;-57
2023/07/17 10:38:24;;;;;;;;;8.60;6.60;;;;;26.89;51.54;99502.97;4973092;28;45488;-55
2023/07/17 10:41:06;;;;;;;;;5.80;5.80;;;;;26.87;51.46;99498.69;4972714;28;45489;-56
2023/07/17 10:43:34;;;;;;;;;8.50;8.00;;;;;26.88;51.38;99503.09;4969772;28;45391;-56
2023/07/17 10:46:00;;;;;;;;;9.00;7.00;;;;;26.90;51.17;99496.53;4973398;28;46627;-56
2023/07/17 10:48:26;;;;;;;;;7.75;7.00;;;;;26.96;51.21;99487.00;4972999;28;45520;-56
2023/07/17 10:50:53;;;;;;;;;8.40;7.60;;;;;27.02;50.84;99491.75;4972834;28;45554;-56
2023/07/17 10:53:19;;;;;;;;;7.00;7.00;;;;;27.06;50.75;99487.72;4966669;28;45586;-59
2023/07/17 10:55:48;;;;;;;;;7.00;6.80;;;;;27.07;50.79;99481.31;4972761;28;47113;-57
2023/07/17 10:58:14;;;;;;;;;8.40;7.00;;;;;27.13;50.75;99474.44;4973965;28;45481;-58
2023/07/17 11:00:41;;;;;;;;;6.50;6.50;;;;;27.20;50.82;99483.59;4972935;28;45550;-56
2023/07/17 11:03:06;;;;;;;;;6.60;6.40;;;;;27.28;50.75;99478.25;4972663;28;45425;-55
2023/07/17 11:05:36;;;;;;;;;8.00;8.00;;;;;27.38;50.19;99471.72;4971459;28;45812;-58
2023/07/17 11:08:02;;;;;;;;;10.00;8.00;;;;;27.49;49.41;99478.69;4973257;28;45556;-56
2023/07/17 11:10:27;;;;;;;;;9.00;9.00;;;;;27.56;49.63;99476.22;4970806;28;45449;-67
2023/07/17 11:12:52;;;;;;;;;8.25;7.00;;;;;27.63;49.87;99471.91;4973252;28;45570;-67
2023/07/17 11:15:21;;;;;;;;;8.25;8.25;;;;;27.69;49.06;99469.38;4972626;28;45519;-68
2023/07/17 11:17:47;;;;;;;;;6.20;6.20;;;;;27.70;48.89;99467.50;4972561;28;45437;-68
2023/07/17 11:20:13;;;;;;;;;5.60;5.60;;;;;27.73;48.51;99470.75;4973265;28;45505;-68
2023/07/17 11:22:40;;;;;;;;;9.25;9.25;;;;;27.73;48.75;99457.19;4972826;28;45402;-68
2023/07/17 11:25:07;;;;;;;;;6.20;6.20;;;;;27.75;48.27;99452.47;4972798;28;45501;-67
2023/07/17 11:27:33;;;;;;;;;9.80;8.00;;;;;27.78;49.03;99459.44;4971339;28;45556;-67
2023/07/17 11:29:58;;;;;;;;;7.75;7.50;;;;;27.78;49.35;99457.56;4973430;28;45529;-68